ホバート の空港の天気 - METARとTAF

ホバート国際空港 ( YMHB / HBA ) - オーストラリア タスマニア州、Cambridge
飛行場実況気象(Metar)
観測時間08/05 18:00 AEST (08/05 08:00 UTC)
風向・風速南南西 8m/s
視程10km以上
天気現象
全天の4割程度の雲 雲底高度 820m
全天の8割程度の雲 雲底高度 940m
気温7℃
湿度70%
気圧1012hPa
METARYMHB 050800Z AUTO 20015KT 9999 // SCT027 BKN031 07/02 Q1012
過去の天気等 Google飛行場航空写真 Wunderground天気予報

過去48時間のMETAR

飛行場予報(TAF)
発表時間: 8/05 15:08 AEST (8/05 05:08 UTC)
予報対象時間: 5日16時 AEST ~ 6日16時 AEST
風向・風速南南西 8m/s 瞬間風速 13m/s
視程10km以上
天気現象弱いしゅう雨
少しの雲 雲底高度 550m
全天の8割程度の雲 雲底高度 910m
5日20時 AEST ~ 5日22時 AEST に徐々に
風向・風速南南西 7m/s
視程10km以上
天気現象弱いしゅう雨
全天の4割程度の雲 雲底高度 610m
全天の8割程度の雲 雲底高度 910m
TAF YMHB 050508Z 0506/0606 21015G25KT 9999 -SHRA FEW018 BKN030
BECMG 0510/0512 21014KT 9999 -SHRA SCT020 BKN030 INTER 0506/0520 6000 SHRA FEW015 BKN025